Time;durP1;ratioP1;P1;durP2;ratioP2;P2;SDS_P1;SDS_P2;PMS_P1;PMS_P2;Temp;Humidity;BMP_temperature;BMP_pressure;BME280_temperature;BME280_humidity;BME280_pressure;Samples;Min_cycle;Max_cycle;Signal;HPM_P1;HPM_P2
2023/08/10 00:02:11;;;;;;;6.90;2.90;;;15.60;99.90;;;;;;5063822;28;20020;-82
2023/08/10 00:04:37;;;;;;;6.80;2.95;;;15.60;99.90;;;;;;5065502;28;20044;-81
2023/08/10 00:07:02;;;;;;;5.35;2.70;;;15.60;99.90;;;;;;5065780;28;20055;-82
2023/08/10 00:09:28;;;;;;;8.77;2.90;;;15.60;99.90;;;;;;5065291;28;20028;-83
2023/08/10 00:11:54;;;;;;;8.15;3.22;;;15.60;99.90;;;;;;5063574;28;20119;-82
2023/08/10 00:14:19;;;;;;;6.70;2.65;;;15.50;99.90;;;;;;5064660;28;20032;-82
2023/08/10 00:16:45;;;;;;;7.43;3.10;;;15.50;99.90;;;;;;5062266;28;20036;-82
2023/08/10 00:19:10;;;;;;;5.95;2.20;;;15.40;99.90;;;;;;5062789;28;20545;-82
2023/08/10 00:21:36;;;;;;;5.93;2.53;;;15.40;99.90;;;;;;5067299;28;20348;-82
2023/08/10 00:24:02;;;;;;;6.18;2.50;;;15.30;99.90;;;;;;5076705;28;20048;-82
2023/08/10 00:26:28;;;;;;;4.80;2.33;;;15.30;99.90;;;;;;5070517;28;20601;-82
2023/08/10 00:28:54;;;;;;;4.90;2.10;;;15.20;99.90;;;;;;5070264;28;20055;-82
2023/08/10 00:31:20;;;;;;;10.05;2.15;;;15.10;99.90;;;;;;5068028;28;20032;-82
2023/08/10 00:33:45;;;;;;;3.83;1.77;;;15.00;99.90;;;;;;5083814;28;20119;-82
2023/08/10 00:36:11;;;;;;;5.88;1.95;;;15.00;99.90;;;;;;5068742;28;20024;-82
2023/08/10 00:38:39;;;;;;;1.75;1.65;;;14.90;99.90;;;;;;5069085;28;20028;-82
2023/08/10 00:41:05;;;;;;;5.90;2.10;;;14.90;99.90;;;;;;5069673;28;20046;-82
2023/08/10 00:43:31;;;;;;;2.63;2.08;;;14.80;99.90;;;;;;5071861;28;20503;-81
2023/08/10 00:45:59;;;;;;;5.50;2.38;;;14.70;99.90;;;;;;5068864;28;20029;-82
2023/08/10 00:48:25;;;;;;;3.65;2.38;;;14.60;99.90;;;;;;5069287;28;20029;-82
2023/08/10 00:50:52;;;;;;;3.15;2.42;;;14.50;99.90;;;;;;5067488;28;20028;-82
2023/08/10 00:53:18;;;;;;;5.20;2.33;;;14.40;99.90;;;;;;5068841;28;20081;-82
2023/08/10 00:55:51;;;;;;;7.53;2.45;;;14.40;99.90;;;;;;5067874;28;20040;-82
2023/08/10 00:58:20;;;;;;;4.88;2.33;;;14.30;99.90;;;;;;5069500;28;20029;-82
2023/08/10 01:00:47;;;;;;;3.92;2.28;;;14.30;99.90;;;;;;5065285;28;20097;-82
2023/08/10 01:03:12;;;;;;;4.03;2.28;;;14.20;99.90;;;;;;5048370;28;20089;-82
2023/08/10 01:05:45;;;;;;;5.00;2.30;;;14.20;99.90;;;;;;5066335;28;20040;-82
2023/08/10 01:08:25;;;;;;;6.65;2.40;;;14.20;99.90;;;;;;5067388;28;20029;-82
2023/08/10 01:11:15;;;;;;;8.30;2.50;;;14.10;99.90;;;;;;5062576;28;20469;-82
2023/08/10 01:13:49;;;;;;;4.93;2.17;;;14.10;99.90;;;;;;5065618;28;20059;-82
2023/08/10 01:16:16;;;;;;;6.53;2.40;;;14.00;99.90;;;;;;5067237;28;20045;-82
2023/08/10 01:18:42;;;;;;;9.18;2.65;;;14.00;99.90;;;;;;5074009;28;20033;-82
2023/08/10 01:21:37;;;;;;;10.88;4.18;;;13.90;99.90;;;;;;5068829;28;20438;-82
2023/08/10 01:24:14;;;;;;;3.00;2.13;;;13.80;99.90;;;;;;5068941;28;20551;-82
2023/08/10 01:26:41;;;;;;;6.68;2.58;;;13.80;99.90;;;;;;5066749;28;20102;-82
2023/08/10 01:29:07;;;;;;;5.28;2.90;;;13.70;99.90;;;;;;5060684;28;20024;-82
2023/08/10 01:31:33;;;;;;;8.75;3.30;;;13.60;99.90;;;;;;5064675;28;20029;-82
2023/08/10 01:33:58;;;;;;;6.55;2.50;;;13.60;99.90;;;;;;5069250;28;20474;-82
2023/08/10 01:36:24;;;;;;;7.97;2.85;;;13.50;99.90;;;;;;5067912;28;20446;-82
2023/08/10 01:38:49;;;;;;;5.47;3.50;;;13.40;99.90;;;;;;5066985;28;20023;-82
2023/08/10 01:41:15;;;;;;;3.72;2.65;;;13.40;99.90;;;;;;5066850;28;20049;-82
2023/08/10 01:43:40;;;;;;;3.65;2.88;;;13.40;99.90;;;;;;5061147;28;20020;-82
2023/08/10 01:46:10;;;;;;;7.50;3.05;;;13.40;99.90;;;;;;5068177;28;20224;-82
2023/08/10 01:48:39;;;;;;;6.35;2.35;;;13.30;99.90;;;;;;5068898;28;20029;-82
2023/08/10 01:51:10;;;;;;;4.18;2.65;;;13.20;99.90;;;;;;5059803;28;20033;-82
2023/08/10 01:53:36;;;;;;;6.68;2.80;;;13.20;99.90;;;;;;5073414;28;20510;-82
2023/08/10 01:56:02;;;;;;;3.90;2.58;;;13.20;99.90;;;;;;5066923;28;20280;-82
2023/08/10 01:58:28;;;;;;;6.30;3.10;;;13.20;99.90;;;;;;5067719;28;20020;-82
2023/08/10 02:00:54;;;;;;;5.43;2.85;;;13.10;99.90;;;;;;5066209;28;20478;-82
2023/08/10 02:03:20;;;;;;;10.02;2.80;;;13.10;99.90;;;;;;5061988;28;20107;-82
2023/08/10 02:05:45;;;;;;;6.20;2.85;;;13.00;99.90;;;;;;5063125;28;20292;-82
2023/08/10 02:08:11;;;;;;;4.20;2.90;;;13.00;99.90;;;;;;5063957;28;20024;-82
2023/08/10 02:10:37;;;;;;;6.10;3.03;;;13.00;99.90;;;;;;5063395;28;20115;-82
2023/08/10 02:13:02;;;;;;;5.53;3.10;;;12.90;99.90;;;;;;5062013;28;20054;-82
2023/08/10 02:15:28;;;;;;;6.45;3.08;;;12.90;99.90;;;;;;5065618;28;20047;-82
2023/08/10 02:17:55;;;;;;;10.63;2.40;;;12.80;99.90;;;;;;5067457;28;20482;-82
2023/08/10 02:20:21;;;;;;;13.55;3.97;;;12.80;99.90;;;;;;5063645;28;20033;-82
2023/08/10 02:22:51;;;;;;;10.60;3.08;;;12.80;99.90;;;;;;5065178;28;20028;-82
2023/08/10 02:25:19;;;;;;;10.90;2.78;;;12.80;99.90;;;;;;5064883;28;20047;-82
2023/08/10 02:27:46;;;;;;;5.20;2.67;;;12.80;99.90;;;;;;5059856;28;20056;-82
2023/08/10 02:30:13;;;;;;;4.70;3.15;;;12.70;99.90;;;;;;5044281;28;20111;-81
2023/08/10 02:32:39;;;;;;;6.00;3.33;;;12.70;99.90;;;;;;5067037;28;20024;-82
2023/08/10 02:35:05;;;;;;;6.55;3.28;;;12.70;99.90;;;;;;5066762;28;20028;-82
2023/08/10 02:37:33;;;;;;;6.97;3.15;;;12.70;99.90;;;;;;5066230;28;20025;-82
2023/08/10 02:39:59;;;;;;;6.15;3.75;;;12.70;99.90;;;;;;5066958;28;20037;-82
2023/08/10 02:42:25;;;;;;;3.47;2.92;;;12.60;99.90;;;;;;5065965;28;20470;-81
2023/08/10 02:44:51;;;;;;;5.97;3.20;;;12.60;99.90;;;;;;5066210;28;20066;-82
2023/08/10 02:47:17;;;;;;;6.82;3.20;;;12.60;99.90;;;;;;5064241;28;20044;-82
2023/08/10 02:49:44;;;;;;;5.18;2.88;;;12.60;99.90;;;;;;5066566;28;20032;-82
2023/08/10 02:52:10;;;;;;;3.35;2.90;;;12.50;99.90;;;;;;5057196;28;20033;-82
2023/08/10 02:54:36;;;;;;;3.35;2.90;;;12.50;99.90;;;;;;5064414;28;20031;-82
2023/08/10 02:57:01;;;;;;;4.13;2.78;;;12.50;99.90;;;;;;5061398;28;20394;-82
2023/08/10 02:59:27;;;;;;;3.55;2.80;;;12.50;99.90;;;;;;5066706;28;20382;-82
2023/08/10 03:01:53;;;;;;;3.30;3.00;;;12.50;99.90;;;;;;5064941;28;20105;-82
2023/08/10 03:04:19;;;;;;;5.30;2.70;;;12.50;99.90;;;;;;5062321;28;20066;-82
2023/08/10 03:06:44;;;;;;;7.88;3.10;;;12.50;99.90;;;;;;5065974;28;20024;-82
2023/08/10 03:09:10;;;;;;;4.75;2.83;;;12.40;99.90;;;;;;5062663;28;20032;-82
2023/08/10 03:11:36;;;;;;;4.60;2.83;;;12.40;99.90;;;;;;5067981;28;20076;-82
2023/08/10 03:14:02;;;;;;;3.47;2.92;;;12.50;99.90;;;;;;5064272;28;20021;-82
2023/08/10 03:16:31;;;;;;;4.53;2.92;;;12.50;99.90;;;;;;5059654;28;20028;-82
2023/08/10 03:18:57;;;;;;;5.57;2.90;;;12.50;99.90;;;;;;5062086;28;20538;-82
2023/08/10 03:21:23;;;;;;;4.18;3.05;;;12.40;99.90;;;;;;5064380;28;20115;-82
2023/08/10 03:23:48;;;;;;;7.40;3.25;;;12.40;99.90;;;;;;5064257;28;20048;-82
2023/08/10 03:26:14;;;;;;;3.35;3.05;;;12.30;99.90;;;;;;5054792;28;20033;-82
2023/08/10 03:28:39;;;;;;;6.03;3.33;;;12.30;99.90;;;;;;5064615;28;20029;-82
2023/08/10 03:31:05;;;;;;;3.88;2.92;;;12.30;99.90;;;;;;5056885;28;20029;-82
2023/08/10 03:33:31;;;;;;;3.80;3.22;;;12.30;99.90;;;;;;5069827;28;20032;-82
2023/08/10 03:35:56;;;;;;;5.35;3.35;;;12.30;99.90;;;;;;5065210;28;20111;-82
2023/08/10 03:38:22;;;;;;;5.55;3.17;;;12.30;99.90;;;;;;5048539;28;20033;-81
2023/08/10 03:40:48;;;;;;;5.63;3.13;;;12.30;99.90;;;;;;5065758;28;20066;-82
2023/08/10 03:43:14;;;;;;;5.40;3.20;;;12.20;99.90;;;;;;5064324;28;20039;-81
2023/08/10 03:45:39;;;;;;;7.75;3.13;;;12.30;99.90;;;;;;5057929;28;20041;-82
2023/08/10 03:48:05;;;;;;;4.30;3.00;;;12.30;99.90;;;;;;5049615;28;20642;-82
2023/08/10 03:50:31;;;;;;;4.70;3.25;;;12.30;99.90;;;;;;5059613;28;20059;-82
2023/08/10 03:52:57;;;;;;;2.70;2.50;;;12.30;99.90;;;;;;5067437;28;20028;-82
2023/08/10 03:55:23;;;;;;;2.50;2.30;;;12.30;99.90;;;;;;5062625;28;20024;-82
2023/08/10 03:57:49;;;;;;;2.15;1.95;;;12.30;99.90;;;;;;5064778;28;20048;-82
2023/08/10 04:00:16;;;;;;;3.63;2.60;;;12.40;99.90;;;;;;5069629;28;20332;-82
2023/08/10 04:02:41;;;;;;;2.88;2.67;;;12.40;99.90;;;;;;5069828;28;20024;-82
2023/08/10 04:05:07;;;;;;;3.30;2.33;;;12.40;99.90;;;;;;5071908;28;20383;-82
2023/08/10 04:07:33;;;;;;;2.83;2.40;;;12.40;99.90;;;;;;5068305;28;20104;-82
2023/08/10 04:10:00;;;;;;;2.97;2.63;;;12.40;99.90;;;;;;5065385;28;20091;-82
2023/08/10 04:12:27;;;;;;;4.05;2.72;;;12.30;99.90;;;;;;5068490;28;20036;-82
2023/08/10 04:14:53;;;;;;;3.20;2.13;;;12.30;99.90;;;;;;5065327;28;20269;-82
2023/08/10 04:17:21;;;;;;;4.07;2.42;;;12.20;99.90;;;;;;5068680;28;20496;-82
2023/08/10 04:19:47;;;;;;;2.85;2.30;;;12.20;99.90;;;;;;5059707;28;20040;-82
2023/08/10 04:22:13;;;;;;;3.15;2.58;;;12.20;99.90;;;;;;5066812;28;20037;-82
2023/08/10 04:24:38;;;;;;;3.83;3.15;;;12.20;99.90;;;;;;5063683;28;20040;-82
2023/08/10 04:27:04;;;;;;;4.45;2.58;;;12.20;99.90;;;;;;5065371;28;20388;-81
2023/08/10 04:29:29;;;;;;;3.97;3.00;;;12.30;99.90;;;;;;5066908;28;20029;-82
2023/08/10 04:31:55;;;;;;;5.70;2.90;;;12.20;99.90;;;;;;5069625;28;20087;-82
2023/08/10 04:34:21;;;;;;;4.38;3.00;;;12.30;99.90;;;;;;5066481;28;20055;-82
2023/08/10 04:36:46;;;;;;;7.78;3.65;;;12.30;99.90;;;;;;5065067;28;20508;-82
2023/08/10 04:39:13;;;;;;;5.40;3.10;;;12.30;99.90;;;;;;5060544;28;20032;-82
2023/08/10 04:41:39;;;;;;;8.98;3.88;;;12.30;99.90;;;;;;5062973;28;20123;-82
2023/08/10 04:44:05;;;;;;;5.03;3.25;;;12.30;99.90;;;;;;5069434;28;20431;-82
2023/08/10 04:46:30;;;;;;;16.02;4.90;;;12.30;99.90;;;;;;5067571;28;20039;-82
2023/08/10 04:48:56;;;;;;;4.05;3.65;;;12.30;99.90;;;;;;5063127;28;20107;-82
2023/08/10 04:51:22;;;;;;;6.45;3.65;;;12.30;99.90;;;;;;5066107;28;20024;-81
2023/08/10 04:53:49;;;;;;;5.40;3.63;;;12.30;99.90;;;;;;5063068;28;20036;-81
2023/08/10 04:56:14;;;;;;;6.53;4.32;;;12.30;99.90;;;;;;5063750;28;20405;-81
2023/08/10 04:58:40;;;;;;;8.75;4.43;;;12.30;99.90;;;;;;5071990;28;20024;-82
2023/08/10 05:01:06;;;;;;;4.55;3.90;;;12.30;99.90;;;;;;5068099;28;20059;-81
2023/08/10 05:03:31;;;;;;;5.90;3.80;;;12.30;99.90;;;;;;5062474;28;20492;-81
2023/08/10 05:05:57;;;;;;;6.18;4.05;;;12.40;99.90;;;;;;5063862;28;20326;-81
2023/08/10 05:08:24;;;;;;;4.28;3.63;;;12.40;99.90;;;;;;5050549;28;20052;-81
2023/08/10 05:10:50;;;;;;;9.57;3.75;;;12.40;99.90;;;;;;5068690;28;20086;-81
2023/08/10 05:13:15;;;;;;;9.50;3.13;;;12.60;99.90;;;;;;5069274;28;20028;-81
2023/08/10 05:15:41;;;;;;;11.23;4.07;;;12.60;99.90;;;;;;5068756;28;20045;-81
2023/08/10 05:18:08;;;;;;;4.40;3.50;;;12.70;99.90;;;;;;5068015;28;20500;-81
2023/08/10 05:20:34;;;;;;;4.80;4.30;;;12.70;99.90;;;;;;5061331;28;20029;-82
2023/08/10 05:22:59;;;;;;;9.52;4.15;;;12.80;99.90;;;;;;5060552;28;20035;-81
2023/08/10 05:25:25;;;;;;;6.57;3.97;;;12.90;99.90;;;;;;5061674;28;20505;-81
2023/08/10 05:27:51;;;;;;;5.53;3.20;;;13.00;99.90;;;;;;5066345;28;20031;-82
2023/08/10 05:30:17;;;;;;;5.80;3.67;;;13.10;99.90;;;;;;5060136;28;20082;-82
2023/08/10 05:32:44;;;;;;;8.15;4.15;;;13.10;99.90;;;;;;5062433;28;20039;-82
2023/08/10 05:35:10;;;;;;;4.32;3.38;;;13.10;99.90;;;;;;5068989;28;20032;-82
2023/08/10 05:37:38;;;;;;;6.47;3.50;;;13.10;99.90;;;;;;5066946;28;20111;-82
2023/08/10 05:40:09;;;;;;;3.65;3.17;;;13.20;99.90;;;;;;5065571;28;20049;-82
2023/08/10 05:42:37;;;;;;;3.60;3.28;;;13.20;99.90;;;;;;5060237;28;20032;-82
2023/08/10 05:45:06;;;;;;;8.82;3.85;;;13.30;99.90;;;;;;5066020;28;20036;-82
2023/08/10 05:47:32;;;;;;;4.45;3.50;;;13.30;99.90;;;;;;5063771;28;20025;-81
2023/08/10 05:49:58;;;;;;;4.82;3.65;;;13.30;99.90;;;;;;5061113;28;20028;-82
2023/08/10 05:52:23;;;;;;;12.48;4.43;;;13.40;99.90;;;;;;5066340;28;20043;-82
2023/08/10 05:54:49;;;;;;;8.05;4.53;;;13.40;99.90;;;;;;5063078;28;20033;-82
2023/08/10 05:57:14;;;;;;;5.43;4.25;;;13.50;99.90;;;;;;5066370;28;20040;-82
2023/08/10 05:59:40;;;;;;;15.73;4.95;;;13.50;99.90;;;;;;5065967;28;20031;-82
2023/08/10 06:02:06;;;;;;;9.00;4.82;;;13.70;99.90;;;;;;5068046;28;20025;-82
2023/08/10 06:04:32;;;;;;;3.78;3.13;;;13.80;99.90;;;;;;5066377;28;20029;-82
2023/08/10 06:06:57;;;;;;;5.15;3.97;;;13.80;99.90;;;;;;5064645;28;20028;-82
2023/08/10 06:09:23;;;;;;;15.23;5.32;;;13.90;99.90;;;;;;5058509;28;20074;-81
2023/08/10 06:11:49;;;;;;;15.48;4.82;;;14.00;99.90;;;;;;5060854;28;20409;-82
2023/08/10 06:14:15;;;;;;;8.85;4.60;;;14.10;99.90;;;;;;5065437;28;20025;-82
2023/08/10 06:16:41;;;;;;;6.70;3.70;;;14.20;99.90;;;;;;5067689;28;20023;-82
2023/08/10 06:19:06;;;;;;;12.27;4.40;;;14.20;99.90;;;;;;5067009;28;20442;-82
2023/08/10 06:21:32;;;;;;;9.32;4.60;;;14.20;99.90;;;;;;5066364;28;20035;-82
2023/08/10 06:23:57;;;;;;;9.30;4.57;;;14.30;99.90;;;;;;5067177;28;20807;-82
2023/08/10 06:26:23;;;;;;;13.63;3.47;;;14.40;99.90;;;;;;5067418;28;20119;-82
2023/08/10 06:28:49;;;;;;;14.45;4.05;;;14.40;99.90;;;;;;5060201;28;20496;-82
2023/08/10 06:31:16;;;;;;;11.02;3.90;;;14.50;99.90;;;;;;5065772;28;20113;-83
2023/08/10 06:33:42;;;;;;;10.27;3.53;;;14.60;99.90;;;;;;5061407;28;20094;-82
2023/08/10 06:36:10;;;;;;;10.70;3.13;;;14.60;99.90;;;;;;5067651;28;20172;-82
2023/08/10 06:38:36;;;;;;;13.75;3.63;;;14.70;99.90;;;;;;5065211;28;20025;-82
2023/08/10 06:41:02;;;;;;;16.35;3.67;;;14.70;99.90;;;;;;5066309;28;20142;-82
2023/08/10 06:43:28;;;;;;;14.02;3.65;;;14.70;99.90;;;;;;5068181;28;20020;-82
2023/08/10 06:45:54;;;;;;;9.40;3.65;;;14.70;99.90;;;;;;5047646;28;20055;-82
2023/08/10 06:48:20;;;;;;;12.57;3.58;;;14.80;99.90;;;;;;5065314;28;20021;-82
2023/08/10 06:50:45;;;;;;;10.65;3.75;;;14.80;99.90;;;;;;5064098;28;20389;-83
2023/08/10 06:53:14;;;;;;;11.57;3.70;;;14.90;99.90;;;;;;5063133;28;20496;-82
2023/08/10 06:55:40;;;;;;;11.20;4.43;;;14.90;99.90;;;;;;5056539;28;20025;-82
2023/08/10 06:58:08;;;;;;;9.93;3.35;;;15.00;99.90;;;;;;5061622;28;20536;-83
2023/08/10 07:00:35;;;;;;;13.93;3.42;;;15.00;99.90;;;;;;5065815;28;20286;-83
2023/08/10 07:03:02;;;;;;;7.10;3.28;;;15.10;99.90;;;;;;5067073;28;20401;-82
2023/08/10 07:05:29;;;;;;;12.98;3.20;;;15.10;99.90;;;;;;5066981;28;20044;-82
2023/08/10 07:07:55;;;;;;;11.05;2.80;;;15.00;99.90;;;;;;5066763;28;20029;-82
2023/08/10 07:10:22;;;;;;;9.75;3.25;;;15.10;99.90;;;;;;5067207;28;20539;-82
2023/08/10 07:12:47;;;;;;;10.80;3.05;;;15.10;99.90;;;;;;5067189;28;20025;-82
2023/08/10 07:15:14;;;;;;;12.98;3.80;;;15.20;99.90;;;;;;5067159;28;20381;-82
2023/08/10 07:17:40;;;;;;;12.93;3.70;;;15.20;99.90;;;;;;5066740;28;20081;-82
2023/08/10 07:20:06;;;;;;;7.75;3.00;;;15.20;99.90;;;;;;5066879;28;20033;-82
2023/08/10 07:22:33;;;;;;;15.25;3.63;;;15.30;99.90;;;;;;5066465;28;20020;-82
2023/08/10 07:25:09;;;;;;;8.30;3.13;;;15.40;99.90;;;;;;5067076;28;20036;-82
2023/08/10 07:27:35;;;;;;;8.35;3.22;;;15.40;99.90;;;;;;5066589;28;20028;-82
2023/08/10 07:30:05;;;;;;;8.55;3.13;;;15.40;99.90;;;;;;5066908;28;20020;-83
2023/08/10 07:32:31;;;;;;;10.75;3.55;;;15.50;99.90;;;;;;5066883;28;20472;-82
2023/08/10 07:34:56;;;;;;;9.75;2.97;;;15.60;99.90;;;;;;5066842;28;20031;-81
2023/08/10 07:37:22;;;;;;;9.13;3.03;;;15.60;99.90;;;;;;5066817;28;20029;-82
2023/08/10 07:39:48;;;;;;;5.10;2.60;;;15.60;99.90;;;;;;5065701;28;20466;-82
2023/08/10 07:42:13;;;;;;;8.90;3.33;;;15.70;99.90;;;;;;5066855;28;20494;-82
2023/08/10 07:44:39;;;;;;;4.68;2.15;;;15.70;99.90;;;;;;5065268;28;20040;-82
2023/08/10 07:47:05;;;;;;;10.23;3.28;;;15.70;99.90;;;;;;5063808;28;20128;-82
2023/08/10 07:49:31;;;;;;;13.88;3.08;;;15.80;99.90;;;;;;5046401;28;20135;-82
2023/08/10 07:51:58;;;;;;;5.95;2.72;;;15.80;99.90;;;;;;5046457;28;20546;-82
2023/08/10 07:54:25;;;;;;;9.13;2.85;;;15.80;99.90;;;;;;5039279;28;20452;-83
2023/08/10 07:56:51;;;;;;;11.27;3.20;;;15.90;99.90;;;;;;5066463;28;20032;-82
2023/08/10 07:59:17;;;;;;;10.23;3.28;;;16.00;99.90;;;;;;5066665;28;20032;-82
2023/08/10 08:01:43;;;;;;;11.18;3.20;;;16.00;99.90;;;;;;5066784;28;20398;-82
2023/08/10 08:04:12;;;;;;;5.53;2.75;;;16.10;99.90;;;;;;5066288;28;20438;-83
2023/08/10 08:06:38;;;;;;;5.40;2.70;;;16.10;99.90;;;;;;5066860;28;20032;-82
2023/08/10 08:09:06;;;;;;;10.15;3.28;;;16.10;99.90;;;;;;5066665;28;20032;-83
2023/08/10 08:11:32;;;;;;;4.80;2.53;;;16.20;99.90;;;;;;5067265;28;20444;-82
2023/08/10 08:13:58;;;;;;;8.95;2.67;;;16.20;99.90;;;;;;5048890;28;20032;-82
2023/08/10 08:16:23;;;;;;;11.38;2.58;;;16.20;99.90;;;;;;5066478;28;20409;-82
2023/08/10 08:18:53;;;;;;;6.38;3.00;;;16.30;99.90;;;;;;5058434;28;20486;-82
2023/08/10 08:21:29;;;;;;;8.35;2.92;;;16.30;99.90;;;;;;5066526;28;20039;-82
2023/08/10 08:23:55;;;;;;;14.07;3.42;;;16.40;99.90;;;;;;5065734;28;20116;-80
2023/08/10 08:26:28;;;;;;;8.60;3.05;;;16.40;99.90;;;;;;5066646;28;20025;-82
2023/08/10 08:28:55;;;;;;;6.18;2.45;;;16.40;99.90;;;;;;5066469;28;20871;-81
2023/08/10 08:31:20;;;;;;;9.77;2.78;;;16.50;99.90;;;;;;5066552;28;20075;-82
2023/08/10 08:33:46;;;;;;;6.32;2.53;;;16.50;99.90;;;;;;5066892;28;20036;-83
2023/08/10 08:36:12;;;;;;;9.52;2.67;;;16.50;99.90;;;;;;5066013;28;20028;-82
2023/08/10 08:38:37;;;;;;;8.85;3.05;;;16.60;99.90;;;;;;5066372;28;20029;-82
2023/08/10 08:41:10;;;;;;;4.10;1.80;;;16.70;99.90;;;;;;5066192;28;20052;-82
2023/08/10 08:43:39;;;;;;;4.32;2.47;;;16.70;99.90;;;;;;5069337;28;20028;-83
2023/08/10 08:46:06;;;;;;;5.85;2.22;;;16.70;99.90;;;;;;5080036;28;20044;-82
2023/08/10 08:48:33;;;;;;;7.40;2.25;;;16.80;99.90;;;;;;5067361;28;20033;-82
2023/08/10 08:50:59;;;;;;;6.15;1.80;;;16.80;99.90;;;;;;5069074;28;20037;-81
2023/08/10 08:53:25;;;;;;;9.45;2.85;;;16.80;99.90;;;;;;5058316;28;20090;-82
2023/08/10 08:55:51;;;;;;;12.35;2.67;;;16.80;99.90;;;;;;5068539;28;20039;-82
2023/08/10 08:58:18;;;;;;;30.02;3.13;;;16.90;99.90;;;;;;5066154;28;20029;-83
2023/08/10 09:00:52;;;;;;;26.65;3.85;;;17.00;99.90;;;;;;5066537;28;20020;-82
2023/08/10 09:03:22;;;;;;;38.63;5.80;;;17.10;99.90;;;;;;5068663;28;20370;-82
2023/08/10 09:05:48;;;;;;;466.85;38.13;;;17.20;99.90;;;;;;5069446;28;20043;-81
2023/08/10 09:08:19;;;;;;;10.20;3.03;;;17.30;99.90;;;;;;5065830;28;20029;-81
2023/08/10 09:10:46;;;;;;;111.72;6.93;;;17.40;99.90;;;;;;5069362;28;20043;-81
2023/08/10 09:13:31;;;;;;;6.47;2.10;;;17.50;99.90;;;;;;5069268;28;20549;-82
2023/08/10 09:16:12;;;;;;;15.43;2.58;;;17.50;99.90;;;;;;5061677;28;20096;-81
2023/08/10 09:18:43;;;;;;;37.38;6.55;;;17.50;99.90;;;;;;5049287;28;20556;-82
2023/08/10 09:21:16;;;;;;;11.10;2.40;;;17.50;99.90;;;;;;5068857;28;20089;-82
2023/08/10 09:23:45;;;;;;;21.30;2.75;;;17.50;99.90;;;;;;5069095;28;20024;-81
2023/08/10 09:26:14;;;;;;;14.02;2.28;;;17.60;99.90;;;;;;5067704;28;20060;-82
2023/08/10 09:28:40;;;;;;;8.50;3.05;;;17.70;99.90;;;;;;5068522;28;20044;-82
2023/08/10 09:31:09;;;;;;;16.38;3.72;;;17.60;99.90;;;;;;5068741;28;20020;-81
2023/08/10 09:33:37;;;;;;;99.95;11.23;;;17.70;99.90;;;;;;5068683;28;20040;-81
2023/08/10 09:36:04;;;;;;;11.63;2.78;;;17.70;99.90;;;;;;5067256;28;20044;-81
2023/08/10 09:38:31;;;;;;;5.07;2.13;;;17.80;99.90;;;;;;5063853;28;20448;-82
2023/08/10 09:41:10;;;;;;;9.68;2.40;;;18.00;99.90;;;;;;5067314;28;20051;-81
2023/08/10 09:43:37;;;;;;;5.93;1.80;;;18.00;99.90;;;;;;5065418;28;20029;-82
2023/08/10 09:46:07;;;;;;;7.63;2.10;;;18.00;99.90;;;;;;5067756;28;20123;-82
2023/08/10 09:48:38;;;;;;;6.22;2.20;;;18.00;99.90;;;;;;5068861;28;20120;-81
2023/08/10 09:51:08;;;;;;;6.05;1.80;;;18.00;99.90;;;;;;5064917;28;20113;-81
2023/08/10 09:53:35;;;;;;;13.25;2.60;;;18.00;99.90;;;;;;5067592;28;20036;-81
2023/08/10 09:56:01;;;;;;;7.45;1.90;;;18.10;99.90;;;;;;5067842;28;20068;-82
2023/08/10 09:58:28;;;;;;;10.05;2.63;;;18.00;99.90;;;;;;5068450;28;20017;-82
2023/08/10 10:00:56;;;;;;;8.60;3.20;;;18.10;99.90;;;;;;5064912;28;20024;-82
2023/08/10 10:03:28;;;;;;;7.82;2.17;;;18.10;99.90;;;;;;5068849;28;20428;-81
2023/08/10 10:05:54;;;;;;;10.55;2.38;;;18.10;99.90;;;;;;5067087;28;20552;-81
2023/08/10 10:08:20;;;;;;;5.40;1.83;;;18.10;99.90;;;;;;5068438;28;20032;-81
2023/08/10 10:10:46;;;;;;;6.75;2.20;;;18.10;99.90;;;;;;5068532;28;20063;-81
2023/08/10 10:13:15;;;;;;;6.80;2.30;;;18.10;99.90;;;;;;5064355;28;20561;-82
2023/08/10 10:15:44;;;;;;;4.28;1.52;;;18.30;99.90;;;;;;5066576;28;20037;-82
2023/08/10 10:18:11;;;;;;;5.65;2.10;;;18.30;99.90;;;;;;5068544;28;20046;-81
2023/08/10 10:20:42;;;;;;;5.40;1.90;;;18.30;99.90;;;;;;5068218;28;20074;-81
2023/08/10 10:23:15;;;;;;;4.50;1.80;;;18.40;99.90;;;;;;5058857;28;20466;-81
2023/08/10 10:26:02;;;;;;;9.55;1.73;;;18.40;99.90;;;;;;5067900;28;20068;-82
2023/08/10 10:28:30;;;;;;;4.82;1.55;;;18.40;99.90;;;;;;5064154;28;20044;-79
2023/08/10 10:30:59;;;;;;;8.77;2.00;;;18.60;99.90;;;;;;5050267;28;20024;-82
2023/08/10 10:33:25;;;;;;;9.32;1.75;;;18.70;99.90;;;;;;5068041;28;20051;-81
2023/08/10 10:36:18;;;;;;;16.80;4.20;;;18.80;99.90;;;;;;5048985;28;20593;-82
2023/08/10 10:38:50;;;;;;;18.95;5.05;;;18.70;99.90;;;;;;5049276;28;20033;-81
2023/08/10 10:41:27;;;;;;;6.15;4.22;;;18.70;99.90;;;;;;5067532;28;20079;-81
2023/08/10 10:43:54;;;;;;;11.40;3.10;;;18.60;99.90;;;;;;5067528;28;20451;-81
2023/08/10 10:46:40;;;;;;;4.15;2.08;;;18.60;99.90;;;;;;5067321;28;20045;-82
2023/08/10 10:49:14;;;;;;;389.02;24.35;;;18.60;99.90;;;;;;5067891;28;20032;-82
2023/08/10 10:51:52;;;;;;;92.78;7.30;;;18.60;99.90;;;;;;5058534;28;20074;-81
2023/08/10 10:54:18;;;;;;;8.10;2.30;;;18.60;99.90;;;;;;5067325;28;20383;-82
2023/08/10 10:56:44;;;;;;;72.63;14.57;;;18.70;99.90;;;;;;5067288;28;20103;-83
2023/08/10 10:59:09;;;;;;;55.25;10.13;;;18.70;99.90;;;;;;5067271;28;20435;-81
2023/08/10 11:01:35;;;;;;;6.63;2.03;;;18.80;99.90;;;;;;5066706;28;20085;-82
2023/08/10 11:04:05;;;;;;;7.47;2.35;;;18.80;99.90;;;;;;5067311;28;20493;-82
2023/08/10 11:06:30;;;;;;;6.00;1.75;;;18.90;99.90;;;;;;5067395;28;20025;-83
2023/08/10 11:08:56;;;;;;;5.18;1.70;;;19.00;99.90;;;;;;5066294;28;20161;-84
2023/08/10 11:11:22;;;;;;;8.00;1.80;;;19.00;99.90;;;;;;5049264;28;20052;-82
2023/08/10 11:13:49;;;;;;;6.10;1.77;;;19.00;99.90;;;;;;5067001;28;20024;-82
2023/08/10 11:16:15;;;;;;;17.33;3.45;;;19.00;99.90;;;;;;5067225;28;20521;-82
2023/08/10 11:18:45;;;;;;;2.72;1.60;;;19.10;99.90;;;;;;5067219;28;20025;-82
2023/08/10 11:21:12;;;;;;;11.10;1.60;;;19.20;99.90;;;;;;5066674;28;20052;-83
2023/08/10 11:23:41;;;;;;;5.28;1.48;;;19.30;99.90;;;;;;5066741;28;20024;-82
2023/08/10 11:26:07;;;;;;;2.08;1.33;;;19.30;99.90;;;;;;5067430;28;20036;-83
2023/08/10 11:28:34;;;;;;;7.18;1.42;;;19.40;99.90;;;;;;5066743;28;20481;-81
2023/08/10 11:31:04;;;;;;;6.13;1.80;;;19.40;99.90;;;;;;5065890;28;20307;-81
2023/08/10 11:33:30;;;;;;;3.88;1.92;;;19.50;99.90;;;;;;5067163;28;20032;-82
2023/08/10 11:35:56;;;;;;;5.90;1.63;;;19.60;99.90;;;;;;5067401;28;20028;-81
2023/08/10 11:38:22;;;;;;;6.75;2.28;;;19.50;99.90;;;;;;5066914;28;20086;-81
2023/08/10 11:40:48;;;;;;;7.78;1.75;;;19.60;99.90;;;;;;5061702;28;20051;-82
2023/08/10 11:43:15;;;;;;;10.65;1.85;;;19.60;99.90;;;;;;5047729;28;20036;-82
2023/08/10 11:45:42;;;;;;;5.20;1.60;;;19.60;99.90;;;;;;5059447;28;20045;-82
2023/08/10 11:48:11;;;;;;;7.75;1.73;;;19.60;99.90;;;;;;5063785;28;20485;-82
2023/08/10 11:50:40;;;;;;;3.13;1.55;;;19.70;99.90;;;;;;5042359;28;20051;-82
2023/08/10 11:53:19;;;;;;;5.38;1.50;;;19.80;99.90;;;;;;5066285;28;20529;-84
2023/08/10 11:55:47;;;;;;;3.33;1.70;;;19.80;99.90;;;;;;5062961;28;20040;-82
2023/08/10 11:58:14;;;;;;;3.80;1.63;;;19.80;99.90;;;;;;5055382;28;20036;-80
2023/08/10 12:00:46;;;;;;;3.58;1.80;;;19.90;99.90;;;;;;5058568;28;20430;-82
2023/08/10 12:03:25;;;;;;;6.82;1.67;;;19.90;99.90;;;;;;5065426;28;20090;-83
2023/08/10 12:05:55;;;;;;;5.95;1.90;;;19.90;99.90;;;;;;5065496;28;20043;-81
2023/08/10 12:08:29;;;;;;;4.70;1.63;;;20.00;99.90;;;;;;5040998;28;20035;-83
2023/08/10 12:11:04;;;;;;;7.22;1.60;;;20.00;99.90;;;;;;5065592;28;20116;-83
2023/08/10 12:13:30;;;;;;;4.70;2.10;;;19.90;99.90;;;;;;5061086;28;20021;-82
2023/08/10 12:15:57;;;;;;;7.75;1.88;;;19.90;99.90;;;;;;5063639;28;20056;-82
2023/08/10 12:18:24;;;;;;;6.63;2.00;;;20.00;99.90;;;;;;5068858;28;20062;-83
2023/08/10 12:20:51;;;;;;;3.83;1.83;;;20.10;99.90;;;;;;5069763;28;20381;-83
2023/08/10 12:23:18;;;;;;;5.32;1.63;;;20.10;99.90;;;;;;5068865;28;20035;-82
2023/08/10 12:25:45;;;;;;;3.15;1.60;;;20.20;99.90;;;;;;5069136;28;20086;-83
2023/08/10 12:28:12;;;;;;;4.10;1.70;;;20.30;99.90;;;;;;5071685;28;20111;-82
2023/08/10 12:30:41;;;;;;;5.40;1.48;;;20.30;99.90;;;;;;5058760;28;20475;-82
2023/08/10 12:33:09;;;;;;;3.63;1.63;;;20.40;99.90;;;;;;5066201;28;20462;-83
2023/08/10 12:35:34;;;;;;;7.78;1.67;;;20.60;99.90;;;;;;5066846;28;20024;-83
2023/08/10 12:38:00;;;;;;;4.53;1.52;;;20.60;99.90;;;;;;5050820;28;20517;-82
2023/08/10 12:40:26;;;;;;;4.10;1.75;;;20.70;99.90;;;;;;5064375;28;20052;-81
2023/08/10 12:42:52;;;;;;;9.18;1.65;;;20.80;99.90;;;;;;5068675;28;20032;-82
2023/08/10 12:45:18;;;;;;;8.00;1.70;;;21.00;99.90;;;;;;5062984;28;20047;-82
2023/08/10 12:47:44;;;;;;;4.15;1.60;;;21.00;99.90;;;;;;5067643;28;20028;-82